createdAt,value
2022-12-28T00:00:10.562Z,61.42
2022-12-28T00:02:37.239Z,61.38
2022-12-28T00:05:04.115Z,61.82
2022-12-28T00:07:30.720Z,62.11
2022-12-28T00:09:57.270Z,62.74
2022-12-28T00:12:45.667Z,63.19
2022-12-28T00:15:12.220Z,62.42
2022-12-28T00:17:38.886Z,63.09
2022-12-28T00:20:06.211Z,63.97
2022-12-28T00:26:45.844Z,63.81
2022-12-28T00:29:12.534Z,62.94
2022-12-28T00:31:39.473Z,62.75
2022-12-28T00:34:06.238Z,62.99
2022-12-28T00:37:10.367Z,63.14
2022-12-28T00:39:20.943Z,62.67
2022-12-28T00:56:22.396Z,63.66
2022-12-28T00:58:49.595Z,63.39
2022-12-28T01:01:22.264Z,63.59
2022-12-28T01:03:51.932Z,64.99
2022-12-28T01:06:21.637Z,64.10
2022-12-28T01:08:51.382Z,63.71
2022-12-28T01:11:43.404Z,65.98
2022-12-28T01:14:10.077Z,66.27
2022-12-28T01:25:48.345Z,65.67
2022-12-28T01:31:21.323Z,65.90
2022-12-28T01:36:26.150Z,65.79
2022-12-28T01:38:58.268Z,65.35
2022-12-28T01:44:17.019Z,65.47
2022-12-28T01:46:51.019Z,65.48
2022-12-28T01:49:24.577Z,66.30
2022-12-28T01:51:54.221Z,66.52
2022-12-28T01:54:24.285Z,66.29
2022-12-28T01:57:57.031Z,66.54
2022-12-28T02:00:47.645Z,66.32
2022-12-28T02:03:27.307Z,66.90
2022-12-28T02:05:57.347Z,66.90
2022-12-28T02:08:33.359Z,66.87
2022-12-28T02:11:01.173Z,66.64
2022-12-28T02:13:28.156Z,66.83
2022-12-28T02:21:38.780Z,66.65
2022-12-28T02:24:32.892Z,66.25
2022-12-28T02:27:19.853Z,65.57
2022-12-28T02:29:46.527Z,65.86
2022-12-28T02:36:18.684Z,65.09
2022-12-28T02:38:51.841Z,64.90
2022-12-28T02:41:24.816Z,64.53
2022-12-28T02:43:53.075Z,64.38
2022-12-28T02:47:00.133Z,63.99
2022-12-28T02:49:46.810Z,63.89
2022-12-28T02:52:50.909Z,64.13
2022-12-28T02:55:54.553Z,64.58
2022-12-28T02:59:12.396Z,64.27
2022-12-28T03:04:52.678Z,64.70
2022-12-28T03:07:59.565Z,64.39
2022-12-28T03:18:07.065Z,63.05
2022-12-28T03:20:52.190Z,63.34
2022-12-28T03:23:42.267Z,63.74
2022-12-28T03:26:31.696Z,65.50
2022-12-28T03:29:21.604Z,67.88
2022-12-28T03:31:48.320Z,68.62
2022-12-28T03:34:14.994Z,67.04
2022-12-28T03:36:59.955Z,66.70
2022-12-28T03:39:41.689Z,66.57
2022-12-28T03:46:01.657Z,65.33
2022-12-28T03:48:28.872Z,66.22
2022-12-28T03:50:56.042Z,67.37
2022-12-28T03:53:45.637Z,67.43
2022-12-28T03:56:15.168Z,68.58
2022-12-28T03:58:42.204Z,68.74
2022-12-28T04:09:22.448Z,68.95
2022-12-28T04:11:48.995Z,68.85
2022-12-28T04:14:15.585Z,69.93
2022-12-28T04:17:10.209Z,70.16
2022-12-28T04:20:01.330Z,70.83
2022-12-28T04:22:27.893Z,68.69
2022-12-28T04:24:54.429Z,67.63
2022-12-28T04:27:24.093Z,66.92
2022-12-28T04:30:13.225Z,66.50
2022-12-28T04:32:39.773Z,66.91
2022-12-28T04:35:06.545Z,67.44
2022-12-28T04:37:37.455Z,67.17
2022-12-28T04:40:04.458Z,67.20
2022-12-28T04:42:32.715Z,66.98
2022-12-28T04:48:01.439Z,67.42
2022-12-28T04:50:29.652Z,66.97
2022-12-28T04:52:56.272Z,67.12
2022-12-28T04:55:41.074Z,67.14
2022-12-28T04:58:50.549Z,67.29
2022-12-28T05:01:42.721Z,67.34
2022-12-28T05:04:09.375Z,67.46
2022-12-28T05:06:36.145Z,69.02
2022-12-28T05:09:02.802Z,69.32
2022-12-28T05:11:30.279Z,69.22
2022-12-28T05:13:57.182Z,69.59
2022-12-28T05:16:26.122Z,69.99
2022-12-28T05:18:52.924Z,69.79
2022-12-28T05:21:21.933Z,70.45
2022-12-28T05:23:49.572Z,69.95
2022-12-28T05:26:59.223Z,69.75
2022-12-28T05:29:51.003Z,69.85
2022-12-28T05:32:17.532Z,69.23
2022-12-28T05:34:45.028Z,69.32
2022-12-28T05:37:15.640Z,68.66
2022-12-28T05:39:45.194Z,68.47
2022-12-28T05:42:35.104Z,68.07
2022-12-28T05:47:57.538Z,68.14
2022-12-28T05:50:24.152Z,67.95
2022-12-28T05:52:50.689Z,67.79
2022-12-28T05:55:17.299Z,67.88
2022-12-28T05:57:43.962Z,68.37
2022-12-28T06:00:34.430Z,69.74
2022-12-28T06:03:32.206Z,69.09
2022-12-28T06:06:19.066Z,68.56
2022-12-28T06:08:47.390Z,68.14
2022-12-28T06:11:17.226Z,67.78
2022-12-28T06:25:06.957Z,67.87
2022-12-28T06:27:33.530Z,68.90
2022-12-28T06:30:00.135Z,70.10
2022-12-28T06:32:26.954Z,69.20
2022-12-28T06:34:53.498Z,68.60
2022-12-28T06:37:20.040Z,68.54
2022-12-28T06:39:46.586Z,68.62
2022-12-28T06:42:13.140Z,68.52
2022-12-28T06:44:44.529Z,68.21
2022-12-28T06:47:12.153Z,68.41
2022-12-28T06:50:00.194Z,68.69
2022-12-28T06:52:27.009Z,68.84
2022-12-28T06:54:53.617Z,68.79
2022-12-28T06:57:20.353Z,68.54
2022-12-28T07:00:28.547Z,68.75
2022-12-28T07:03:51.576Z,68.76
2022-12-28T07:06:20.054Z,68.74
2022-12-28T07:08:47.641Z,69.03
2022-12-28T07:11:16.716Z,69.74
2022-12-28T07:13:43.446Z,69.16
2022-12-28T07:16:13.151Z,69.06
2022-12-28T07:18:39.946Z,69.81
2022-12-28T07:21:10.620Z,69.69
2022-12-28T07:23:37.506Z,69.22
2022-12-28T07:26:21.977Z,69.04
2022-12-28T07:28:50.731Z,68.81
2022-12-28T07:31:20.447Z,68.45
2022-12-28T07:33:47.953Z,68.87
2022-12-28T07:36:18.110Z,68.62
2022-12-28T07:38:44.985Z,69.56
2022-12-28T07:41:14.384Z,71.97
2022-12-28T07:43:42.067Z,74.14
2022-12-28T07:46:12.132Z,73.36
2022-12-28T07:48:40.243Z,72.30
2022-12-28T07:51:12.720Z,71.25
2022-12-28T07:53:39.779Z,71.30
2022-12-28T07:56:06.976Z,70.53
2022-12-28T07:58:33.954Z,70.22
2022-12-28T08:01:09.504Z,70.17
2022-12-28T08:03:36.984Z,70.64
2022-12-28T08:06:08.175Z,70.62
2022-12-28T08:08:40.259Z,71.28
2022-12-28T08:11:12.252Z,70.73
2022-12-28T08:13:45.155Z,70.56
2022-12-28T08:16:13.639Z,68.96
2022-12-28T08:18:40.813Z,68.04
2022-12-28T08:21:13.635Z,68.14
2022-12-28T08:23:40.783Z,68.80
2022-12-28T08:26:09.824Z,69.09
2022-12-28T08:28:37.431Z,68.67
2022-12-28T08:31:13.136Z,67.86
2022-12-28T08:33:40.140Z,68.87
2022-12-28T08:36:07.851Z,68.98
2022-12-28T08:38:34.450Z,68.33
2022-12-28T08:41:03.432Z,68.53
2022-12-28T08:43:31.130Z,66.91
2022-12-28T08:46:11.218Z,66.27
2022-12-28T08:48:38.435Z,66.31
2022-12-28T08:51:13.365Z,66.79
2022-12-28T08:53:40.866Z,65.77
2022-12-28T08:56:13.465Z,64.67
2022-12-28T08:58:43.513Z,64.58
2022-12-28T09:01:21.601Z,66.26
2022-12-28T09:03:50.768Z,66.03
2022-12-28T09:06:31.401Z,66.66
2022-12-28T09:09:07.223Z,65.52
2022-12-28T09:11:35.662Z,66.16
2022-12-28T09:14:03.254Z,66.35
2022-12-28T09:16:30.238Z,65.55
2022-12-28T09:18:59.617Z,65.09
2022-12-28T09:21:29.505Z,63.83
2022-12-28T09:23:56.536Z,63.95
2022-12-28T09:26:28.663Z,62.80
2022-12-28T09:28:58.314Z,63.30
2022-12-28T09:31:27.668Z,63.25
2022-12-28T09:36:49.848Z,62.32
2022-12-28T09:39:19.397Z,61.01
2022-12-28T09:41:51.288Z,60.58
2022-12-28T09:45:02.614Z,61.13
2022-12-28T09:47:34.133Z,61.83
2022-12-28T09:50:16.077Z,60.40
2022-12-28T09:53:06.853Z,61.00
2022-12-28T09:55:41.380Z,61.50
2022-12-28T09:58:16.950Z,60.01
2022-12-28T10:00:50.342Z,61.15
2022-12-28T10:03:20.462Z,61.07
2022-12-28T10:05:48.085Z,60.45
2022-12-28T10:08:18.626Z,60.35
2022-12-28T10:10:48.913Z,61.09
2022-12-28T10:13:45.895Z,60.21
2022-12-28T10:16:18.088Z,59.45
2022-12-28T10:18:45.527Z,57.98
2022-12-28T10:21:36.564Z,58.80
2022-12-28T11:56:51.442Z,53.30
2022-12-28T11:59:28.055Z,52.57
2022-12-28T12:01:57.497Z,51.80
2022-12-28T12:04:29.858Z,51.93
2022-12-28T12:07:01.290Z,51.91
2022-12-28T13:09:43.044Z,52.40
2022-12-28T13:12:20.157Z,51.53
2022-12-28T13:14:49.985Z,52.19
2022-12-28T13:17:21.757Z,52.83
2022-12-28T13:19:48.428Z,53.02
2022-12-28T13:23:20.597Z,53.07
2022-12-28T13:29:34.563Z,53.39
2022-12-28T13:32:01.171Z,54.31
2022-12-28T13:34:29.328Z,54.95
2022-12-28T13:37:15.937Z,54.82
2022-12-28T13:39:42.827Z,54.00
2022-12-28T14:12:16.140Z,56.55
2022-12-28T14:14:43.938Z,56.28
2022-12-28T14:19:46.103Z,56.56
2022-12-28T14:22:37.649Z,55.86
2022-12-28T14:25:06.787Z,55.52
2022-12-28T14:27:39.842Z,55.89
2022-12-28T14:30:07.951Z,56.21
2022-12-28T14:36:40.814Z,55.65
2022-12-28T14:39:25.209Z,56.12
2022-12-28T14:41:51.982Z,55.72
2022-12-28T14:44:29.936Z,54.89
2022-12-28T14:47:46.380Z,55.07
2022-12-28T14:52:50.589Z,55.47
2022-12-28T14:55:47.216Z,56.31
2022-12-28T14:58:40.423Z,56.97
2022-12-28T15:01:10.201Z,57.43
2022-12-28T15:33:41.274Z,55.65
2022-12-28T15:36:41.509Z,56.51
2022-12-28T15:39:38.294Z,57.08
2022-12-28T15:42:04.977Z,57.47
2022-12-28T15:44:31.658Z,57.37
2022-12-28T15:51:13.664Z,57.89
2022-12-28T15:53:41.655Z,58.23
2022-12-28T15:56:20.293Z,60.04
2022-12-28T15:59:23.991Z,59.27
2022-12-28T16:01:50.761Z,58.73
2022-12-28T16:04:17.562Z,59.75
2022-12-28T16:40:12.183Z,59.60
2022-12-28T16:42:39.395Z,60.01
2022-12-28T16:45:09.208Z,60.28
2022-12-28T16:51:28.940Z,60.10
2022-12-28T16:53:56.021Z,60.57
2022-12-28T16:56:22.785Z,60.66
2022-12-28T16:58:49.805Z,60.71
2022-12-28T17:01:16.636Z,60.86
2022-12-28T17:03:43.428Z,59.35
2022-12-28T17:08:45.539Z,60.41
2022-12-28T17:11:13.068Z,60.43
2022-12-28T17:13:39.753Z,59.48
2022-12-28T17:27:38.642Z,59.50
2022-12-28T17:30:05.663Z,59.27
2022-12-28T17:32:39.297Z,59.67
2022-12-28T17:35:33.750Z,59.36
2022-12-28T17:56:23.924Z,61.15
2022-12-28T17:59:03.481Z,60.35
2022-12-28T18:01:30.517Z,61.35
2022-12-28T18:03:59.746Z,60.70
2022-12-28T18:54:46.628Z,63.25
2022-12-28T18:57:13.182Z,63.48
2022-12-28T18:59:39.766Z,63.43
2022-12-28T19:02:08.464Z,63.90
2022-12-28T19:05:11.107Z,63.72
2022-12-28T19:07:37.857Z,64.71
2022-12-28T19:10:15.863Z,65.01
2022-12-28T19:12:44.699Z,65.07
2022-12-28T19:19:25.994Z,65.69
2022-12-28T19:21:58.376Z,66.12
2022-12-28T19:24:25.531Z,65.25
2022-12-28T19:26:53.856Z,66.29
2022-12-28T19:29:20.437Z,67.12
2022-12-28T19:31:47.002Z,66.19
2022-12-28T19:34:41.305Z,65.82
2022-12-28T19:37:08.035Z,65.63
2022-12-28T19:39:34.589Z,65.92
2022-12-28T19:42:01.139Z,66.23
2022-12-28T19:48:42.831Z,66.12
2022-12-28T21:01:13.319Z,69.24
2022-12-28T21:09:51.100Z,69.68
2022-12-28T21:12:17.860Z,69.65
2022-12-28T21:14:47.597Z,69.80
2022-12-28T21:17:14.247Z,69.74
2022-12-28T21:19:40.864Z,69.88
2022-12-28T21:25:02.995Z,70.41
2022-12-28T21:27:29.577Z,70.06
2022-12-28T21:29:56.166Z,69.93
2022-12-28T21:32:22.710Z,69.80
2022-12-28T21:34:49.455Z,69.54
2022-12-28T22:01:38.930Z,72.54
2022-12-28T22:04:24.147Z,71.92
2022-12-28T22:06:50.818Z,71.64
2022-12-28T22:09:36.009Z,70.97
2022-12-28T22:18:53.150Z,70.57
2022-12-28T22:21:14.042Z,71.36
2022-12-28T22:23:40.609Z,70.80
2022-12-28T22:26:07.487Z,70.59
2022-12-28T22:28:52.970Z,70.57
2022-12-28T22:39:05.241Z,70.46
2022-12-28T22:41:31.853Z,71.03
2022-12-28T22:44:16.846Z,71.54
2022-12-28T22:46:43.421Z,71.55
2022-12-28T22:49:12.334Z,71.12
2022-12-28T22:51:38.936Z,71.45
2022-12-28T22:58:17.800Z,72.23
